Kayes, Mali
Current Conditions -  °F | °C
As of 12:00 PM on Thursday 18 Dec 2014 (Local Time) from GOSM Reporting Station
Clear Clear  
Wind Chill: 82°   Ceiling: Unl
Heat Index: 82°   Visibility: 6mi
Dew Point: 34°   Wind: 5mph
Humidity: 17%   Direction: 120°ESE
Pressure: 29.97"   Gusts: NA
Location:  14.45°N, 11.44°W
Report Text: GOSM 181200Z 12004KT CAVOK 28/01 Q1015
Loading
Personal Weather Stations






























Interactive Weather Map New forecast layout! Learn more

10-Day Weather Forecast

Advertisements
Track Severe Weather on mobile